sensor_id;sensor_type;location;lat;lon;timestamp;P1;durP1;ratioP1;P2;durP2;ratioP2
30127;SDS011;16942;53.196;6.592;2024-02-14T00:02:13;6.60;;;3.90;;
30127;SDS011;16942;53.196;6.592;2024-02-14T00:04:39;5.40;;;3.93;;
30127;SDS011;16942;53.196;6.592;2024-02-14T00:07:05;5.80;;;3.63;;
30127;SDS011;16942;53.196;6.592;2024-02-14T00:09:31;7.40;;;4.53;;
30127;SDS011;16942;53.196;6.592;2024-02-14T00:11:57;6.57;;;4.00;;
30127;SDS011;16942;53.196;6.592;2024-02-14T00:14:23;6.30;;;4.07;;
30127;SDS011;16942;53.196;6.592;2024-02-14T00:16:49;4.97;;;3.77;;
30127;SDS011;16942;53.196;6.592;2024-02-14T00:19:16;6.10;;;4.47;;
30127;SDS011;16942;53.196;6.592;2024-02-14T00:21:42;6.30;;;4.30;;
30127;SDS011;16942;53.196;6.592;2024-02-14T00:24:08;7.03;;;4.27;;
30127;SDS011;16942;53.196;6.592;2024-02-14T00:26:34;6.47;;;5.03;;
30127;SDS011;16942;53.196;6.592;2024-02-14T00:29:00;5.90;;;4.77;;
30127;SDS011;16942;53.196;6.592;2024-02-14T00:31:27;6.07;;;4.10;;
30127;SDS011;16942;53.196;6.592;2024-02-14T00:33:53;6.50;;;4.73;;
30127;SDS011;16942;53.196;6.592;2024-02-14T00:36:19;6.07;;;4.70;;
30127;SDS011;16942;53.196;6.592;2024-02-14T00:38:45;8.33;;;4.73;;
30127;SDS011;16942;53.196;6.592;2024-02-14T00:41:11;5.20;;;4.67;;
30127;SDS011;16942;53.196;6.592;2024-02-14T00:43:37;5.57;;;4.80;;
30127;SDS011;16942;53.196;6.592;2024-02-14T00:46:03;6.67;;;4.63;;
30127;SDS011;16942;53.196;6.592;2024-02-14T00:48:30;8.97;;;4.80;;
30127;SDS011;16942;53.196;6.592;2024-02-14T00:50:56;5.20;;;4.50;;
30127;SDS011;16942;53.196;6.592;2024-02-14T00:53:22;6.27;;;4.67;;
30127;SDS011;16942;53.196;6.592;2024-02-14T00:55:48;7.03;;;4.43;;
30127;SDS011;16942;53.196;6.592;2024-02-14T00:58:13;6.40;;;4.57;;
30127;SDS011;16942;53.196;6.592;2024-02-14T01:00:39;5.03;;;4.20;;
30127;SDS011;16942;53.196;6.592;2024-02-14T01:03:06;5.93;;;4.37;;
30127;SDS011;16942;53.196;6.592;2024-02-14T01:05:33;7.20;;;4.50;;
30127;SDS011;16942;53.196;6.592;2024-02-14T01:07:59;5.77;;;4.57;;
30127;SDS011;16942;53.196;6.592;2024-02-14T01:10:25;6.70;;;4.20;;
30127;SDS011;16942;53.196;6.592;2024-02-14T01:12:51;6.53;;;4.17;;
30127;SDS011;16942;53.196;6.592;2024-02-14T01:15:17;4.80;;;3.73;;
30127;SDS011;16942;53.196;6.592;2024-02-14T01:17:43;7.03;;;4.30;;
30127;SDS011;16942;53.196;6.592;2024-02-14T01:20:10;4.10;;;3.70;;
30127;SDS011;16942;53.196;6.592;2024-02-14T01:22:36;5.70;;;3.60;;
30127;SDS011;16942;53.196;6.592;2024-02-14T01:25:02;4.33;;;3.80;;
30127;SDS011;16942;53.196;6.592;2024-02-14T01:27:29;4.27;;;3.83;;
30127;SDS011;16942;53.196;6.592;2024-02-14T01:29:55;4.63;;;4.13;;
30127;SDS011;16942;53.196;6.592;2024-02-14T01:32:22;4.13;;;3.73;;
30127;SDS011;16942;53.196;6.592;2024-02-14T01:34:48;5.10;;;3.70;;
30127;SDS011;16942;53.196;6.592;2024-02-14T01:37:14;4.07;;;3.67;;
30127;SDS011;16942;53.196;6.592;2024-02-14T01:39:40;4.47;;;3.37;;
30127;SDS011;16942;53.196;6.592;2024-02-14T01:42:06;4.07;;;3.60;;
30127;SDS011;16942;53.196;6.592;2024-02-14T01:44:33;3.60;;;3.30;;
30127;SDS011;16942;53.196;6.592;2024-02-14T01:46:59;3.63;;;3.33;;
30127;SDS011;16942;53.196;6.592;2024-02-14T01:49:26;3.50;;;3.20;;
30127;SDS011;16942;53.196;6.592;2024-02-14T01:51:53;3.73;;;2.97;;
30127;SDS011;16942;53.196;6.592;2024-02-14T01:54:19;4.30;;;3.20;;
30127;SDS011;16942;53.196;6.592;2024-02-14T01:56:45;4.03;;;3.27;;
30127;SDS011;16942;53.196;6.592;2024-02-14T01:59:11;3.07;;;2.77;;
30127;SDS011;16942;53.196;6.592;2024-02-14T02:01:37;3.40;;;2.93;;
30127;SDS011;16942;53.196;6.592;2024-02-14T02:04:03;3.00;;;2.70;;
30127;SDS011;16942;53.196;6.592;2024-02-14T02:06:29;2.80;;;2.60;;
30127;SDS011;16942;53.196;6.592;2024-02-14T02:08:56;2.90;;;2.63;;
30127;SDS011;16942;53.196;6.592;2024-02-14T02:11:22;2.60;;;2.40;;
30127;SDS011;16942;53.196;6.592;2024-02-14T02:13:48;2.90;;;2.50;;
30127;SDS011;16942;53.196;6.592;2024-02-14T02:16:14;2.20;;;2.00;;
30127;SDS011;16942;53.196;6.592;2024-02-14T02:18:40;2.73;;;2.30;;
30127;SDS011;16942;53.196;6.592;2024-02-14T02:21:06;2.30;;;2.10;;
30127;SDS011;16942;53.196;6.592;2024-02-14T02:23:35;2.63;;;2.20;;
30127;SDS011;16942;53.196;6.592;2024-02-14T02:26:01;2.43;;;2.23;;
30127;SDS011;16942;53.196;6.592;2024-02-14T02:28:27;2.37;;;2.17;;
30127;SDS011;16942;53.196;6.592;2024-02-14T02:30:53;2.60;;;2.20;;
30127;SDS011;16942;53.196;6.592;2024-02-14T02:33:20;2.40;;;2.20;;
30127;SDS011;16942;53.196;6.592;2024-02-14T02:35:46;2.70;;;2.10;;
30127;SDS011;16942;53.196;6.592;2024-02-14T02:38:13;2.10;;;1.90;;
30127;SDS011;16942;53.196;6.592;2024-02-14T02:40:39;2.13;;;2.00;;
30127;SDS011;16942;53.196;6.592;2024-02-14T02:43:05;2.20;;;1.93;;
30127;SDS011;16942;53.196;6.592;2024-02-14T02:45:31;2.53;;;2.33;;
30127;SDS011;16942;53.196;6.592;2024-02-14T02:47:57;2.07;;;1.87;;
30127;SDS011;16942;53.196;6.592;2024-02-14T02:50:25;2.13;;;1.90;;
30127;SDS011;16942;53.196;6.592;2024-02-14T02:52:52;2.43;;;1.97;;
30127;SDS011;16942;53.196;6.592;2024-02-14T02:55:19;2.47;;;1.80;;
30127;SDS011;16942;53.196;6.592;2024-02-14T02:57:46;2.10;;;1.90;;
30127;SDS011;16942;53.196;6.592;2024-02-14T03:00:12;1.80;;;1.70;;
30127;SDS011;16942;53.196;6.592;2024-02-14T03:02:38;2.10;;;1.90;;
30127;SDS011;16942;53.196;6.592;2024-02-14T03:05:11;1.90;;;1.80;;
30127;SDS011;16942;53.196;6.592;2024-02-14T03:07:43;2.00;;;1.90;;
30127;SDS011;16942;53.196;6.592;2024-02-14T03:10:10;2.07;;;1.87;;
30127;SDS011;16942;53.196;6.592;2024-02-14T03:12:38;1.70;;;1.60;;
30127;SDS011;16942;53.196;6.592;2024-02-14T03:15:04;1.63;;;1.53;;
30127;SDS011;16942;53.196;6.592;2024-02-14T03:17:31;1.80;;;1.70;;
30127;SDS011;16942;53.196;6.592;2024-02-14T03:19:57;2.10;;;1.90;;
30127;SDS011;16942;53.196;6.592;2024-02-14T03:22:23;1.83;;;1.73;;
30127;SDS011;16942;53.196;6.592;2024-02-14T03:24:49;1.90;;;1.80;;
30127;SDS011;16942;53.196;6.592;2024-02-14T03:27:15;1.60;;;1.50;;
30127;SDS011;16942;53.196;6.592;2024-02-14T03:29:42;1.70;;;1.60;;
30127;SDS011;16942;53.196;6.592;2024-02-14T03:32:09;1.80;;;1.70;;
30127;SDS011;16942;53.196;6.592;2024-02-14T03:34:35;1.50;;;1.40;;
30127;SDS011;16942;53.196;6.592;2024-02-14T03:37:01;1.70;;;1.60;;
30127;SDS011;16942;53.196;6.592;2024-02-14T03:39:30;1.70;;;1.60;;
30127;SDS011;16942;53.196;6.592;2024-02-14T03:41:56;1.50;;;1.40;;
30127;SDS011;16942;53.196;6.592;2024-02-14T03:44:23;1.63;;;1.53;;
30127;SDS011;16942;53.196;6.592;2024-02-14T03:46:49;1.40;;;1.30;;
30127;SDS011;16942;53.196;6.592;2024-02-14T03:49:16;1.60;;;1.50;;
30127;SDS011;16942;53.196;6.592;2024-02-14T03:51:42;1.50;;;1.40;;
30127;SDS011;16942;53.196;6.592;2024-02-14T03:54:08;1.50;;;1.40;;
30127;SDS011;16942;53.196;6.592;2024-02-14T03:56:34;1.30;;;1.20;;
30127;SDS011;16942;53.196;6.592;2024-02-14T03:59:00;1.57;;;1.47;;
30127;SDS011;16942;53.196;6.592;2024-02-14T04:01:27;1.43;;;1.33;;
30127;SDS011;16942;53.196;6.592;2024-02-14T04:03:54;1.33;;;1.10;;
30127;SDS011;16942;53.196;6.592;2024-02-14T04:06:20;1.30;;;1.20;;
30127;SDS011;16942;53.196;6.592;2024-02-14T04:08:46;1.30;;;1.20;;
30127;SDS011;16942;53.196;6.592;2024-02-14T04:11:12;1.30;;;1.20;;
30127;SDS011;16942;53.196;6.592;2024-02-14T04:13:39;1.43;;;1.23;;
30127;SDS011;16942;53.196;6.592;2024-02-14T04:16:05;1.43;;;1.17;;
30127;SDS011;16942;53.196;6.592;2024-02-14T04:18:31;2.00;;;1.13;;
30127;SDS011;16942;53.196;6.592;2024-02-14T04:20:57;1.37;;;1.27;;
30127;SDS011;16942;53.196;6.592;2024-02-14T04:23:24;1.60;;;1.50;;
30127;SDS011;16942;53.196;6.592;2024-02-14T04:25:51;1.50;;;1.40;;
30127;SDS011;16942;53.196;6.592;2024-02-14T04:28:17;1.50;;;1.40;;
30127;SDS011;16942;53.196;6.592;2024-02-14T04:30:43;1.50;;;1.40;;
30127;SDS011;16942;53.196;6.592;2024-02-14T04:33:09;1.50;;;1.40;;
30127;SDS011;16942;53.196;6.592;2024-02-14T04:35:35;1.80;;;1.70;;
30127;SDS011;16942;53.196;6.592;2024-02-14T04:38:01;1.57;;;1.47;;
30127;SDS011;16942;53.196;6.592;2024-02-14T04:40:27;1.50;;;1.40;;
30127;SDS011;16942;53.196;6.592;2024-02-14T04:42:53;1.80;;;1.70;;
30127;SDS011;16942;53.196;6.592;2024-02-14T04:45:19;1.57;;;1.47;;
30127;SDS011;16942;53.196;6.592;2024-02-14T04:47:45;1.60;;;1.50;;
30127;SDS011;16942;53.196;6.592;2024-02-14T04:50:11;1.60;;;1.50;;
30127;SDS011;16942;53.196;6.592;2024-02-14T04:52:38;1.60;;;1.50;;
30127;SDS011;16942;53.196;6.592;2024-02-14T04:55:05;1.50;;;1.40;;
30127;SDS011;16942;53.196;6.592;2024-02-14T04:57:31;1.90;;;1.80;;
30127;SDS011;16942;53.196;6.592;2024-02-14T05:00:00;1.53;;;1.43;;
30127;SDS011;16942;53.196;6.592;2024-02-14T05:02:26;1.53;;;1.43;;
30127;SDS011;16942;53.196;6.592;2024-02-14T05:04:53;1.50;;;1.40;;
30127;SDS011;16942;53.196;6.592;2024-02-14T05:07:20;1.60;;;1.50;;
30127;SDS011;16942;53.196;6.592;2024-02-14T05:09:46;1.70;;;1.60;;
30127;SDS011;16942;53.196;6.592;2024-02-14T05:12:15;1.60;;;1.50;;
30127;SDS011;16942;53.196;6.592;2024-02-14T05:14:41;1.40;;;1.30;;
30127;SDS011;16942;53.196;6.592;2024-02-14T05:17:07;1.50;;;1.40;;
30127;SDS011;16942;53.196;6.592;2024-02-14T05:19:34;1.40;;;1.30;;
30127;SDS011;16942;53.196;6.592;2024-02-14T05:22:00;1.60;;;1.50;;
30127;SDS011;16942;53.196;6.592;2024-02-14T05:24:26;1.50;;;1.40;;
30127;SDS011;16942;53.196;6.592;2024-02-14T05:26:54;1.07;;;1.07;;
30127;SDS011;16942;53.196;6.592;2024-02-14T05:29:20;1.30;;;1.20;;
30127;SDS011;16942;53.196;6.592;2024-02-14T05:31:47;1.40;;;1.30;;
30127;SDS011;16942;53.196;6.592;2024-02-14T05:34:13;1.23;;;1.13;;
30127;SDS011;16942;53.196;6.592;2024-02-14T05:36:40;1.40;;;1.30;;
30127;SDS011;16942;53.196;6.592;2024-02-14T05:39:07;1.33;;;1.23;;
30127;SDS011;16942;53.196;6.592;2024-02-14T05:41:33;1.47;;;1.37;;
30127;SDS011;16942;53.196;6.592;2024-02-14T05:44:00;1.37;;;1.27;;
30127;SDS011;16942;53.196;6.592;2024-02-14T05:46:26;1.50;;;1.27;;
30127;SDS011;16942;53.196;6.592;2024-02-14T05:48:53;1.67;;;1.43;;
30127;SDS011;16942;53.196;6.592;2024-02-14T05:51:20;1.30;;;1.20;;
30127;SDS011;16942;53.196;6.592;2024-02-14T05:53:46;1.40;;;1.20;;
30127;SDS011;16942;53.196;6.592;2024-02-14T05:56:12;1.20;;;1.10;;
30127;SDS011;16942;53.196;6.592;2024-02-14T05:58:38;1.20;;;1.10;;
30127;SDS011;16942;53.196;6.592;2024-02-14T06:01:04;1.20;;;1.10;;
30127;SDS011;16942;53.196;6.592;2024-02-14T06:03:31;1.20;;;1.10;;
30127;SDS011;16942;53.196;6.592;2024-02-14T06:05:57;1.20;;;1.10;;
30127;SDS011;16942;53.196;6.592;2024-02-14T06:08:23;0.97;;;0.97;;
30127;SDS011;16942;53.196;6.592;2024-02-14T06:10:49;0.90;;;0.83;;
30127;SDS011;16942;53.196;6.592;2024-02-14T06:13:15;1.10;;;1.00;;
30127;SDS011;16942;53.196;6.592;2024-02-14T06:15:41;0.80;;;0.80;;
30127;SDS011;16942;53.196;6.592;2024-02-14T06:18:07;1.07;;;0.80;;
30127;SDS011;16942;53.196;6.592;2024-02-14T06:20:33;1.77;;;0.90;;
30127;SDS011;16942;53.196;6.592;2024-02-14T06:22:59;1.07;;;0.97;;
30127;SDS011;16942;53.196;6.592;2024-02-14T06:25:25;0.80;;;0.80;;
30127;SDS011;16942;53.196;6.592;2024-02-14T06:27:52;1.40;;;0.90;;
30127;SDS011;16942;53.196;6.592;2024-02-14T06:30:19;1.30;;;0.97;;
30127;SDS011;16942;53.196;6.592;2024-02-14T06:32:45;2.40;;;1.10;;
30127;SDS011;16942;53.196;6.592;2024-02-14T06:35:11;3.23;;;1.30;;
30127;SDS011;16942;53.196;6.592;2024-02-14T06:37:39;3.93;;;1.70;;
30127;SDS011;16942;53.196;6.592;2024-02-14T06:40:06;5.10;;;1.60;;
30127;SDS011;16942;53.196;6.592;2024-02-14T06:42:33;6.70;;;2.20;;
30127;SDS011;16942;53.196;6.592;2024-02-14T06:44:59;7.63;;;2.60;;
30127;SDS011;16942;53.196;6.592;2024-02-14T06:47:25;6.20;;;2.43;;
30127;SDS011;16942;53.196;6.592;2024-02-14T06:49:54;6.10;;;2.70;;
30127;SDS011;16942;53.196;6.592;2024-02-14T06:52:20;9.50;;;2.57;;
30127;SDS011;16942;53.196;6.592;2024-02-14T06:54:46;6.97;;;2.50;;
30127;SDS011;16942;53.196;6.592;2024-02-14T06:57:13;7.07;;;2.97;;
30127;SDS011;16942;53.196;6.592;2024-02-14T06:59:39;7.90;;;2.60;;
30127;SDS011;16942;53.196;6.592;2024-02-14T07:02:05;9.20;;;2.23;;
30127;SDS011;16942;53.196;6.592;2024-02-14T07:04:31;7.63;;;2.13;;
30127;SDS011;16942;53.196;6.592;2024-02-14T07:06:57;6.80;;;2.30;;
30127;SDS011;16942;53.196;6.592;2024-02-14T07:09:23;9.63;;;2.40;;
30127;SDS011;16942;53.196;6.592;2024-02-14T07:11:50;7.73;;;2.10;;
30127;SDS011;16942;53.196;6.592;2024-02-14T07:14:18;4.47;;;1.80;;
30127;SDS011;16942;53.196;6.592;2024-02-14T07:16:44;7.63;;;2.10;;
30127;SDS011;16942;53.196;6.592;2024-02-14T07:19:10;8.13;;;2.27;;
30127;SDS011;16942;53.196;6.592;2024-02-14T07:21:36;7.50;;;2.47;;
30127;SDS011;16942;53.196;6.592;2024-02-14T07:24:04;12.03;;;2.60;;
30127;SDS011;16942;53.196;6.592;2024-02-14T07:26:30;9.80;;;2.40;;
30127;SDS011;16942;53.196;6.592;2024-02-14T07:28:56;11.03;;;2.47;;
30127;SDS011;16942;53.196;6.592;2024-02-14T07:31:22;11.50;;;2.77;;
30127;SDS011;16942;53.196;6.592;2024-02-14T07:33:48;10.10;;;2.57;;
30127;SDS011;16942;53.196;6.592;2024-02-14T07:36:18;9.53;;;2.83;;
30127;SDS011;16942;53.196;6.592;2024-02-14T07:38:44;8.10;;;2.77;;
30127;SDS011;16942;53.196;6.592;2024-02-14T07:41:10;8.63;;;2.73;;
30127;SDS011;16942;53.196;6.592;2024-02-14T07:43:36;8.87;;;3.00;;
30127;SDS011;16942;53.196;6.592;2024-02-14T07:46:02;10.17;;;3.13;;
30127;SDS011;16942;53.196;6.592;2024-02-14T07:48:30;9.77;;;2.50;;
30127;SDS011;16942;53.196;6.592;2024-02-14T07:50:56;8.67;;;2.73;;
30127;SDS011;16942;53.196;6.592;2024-02-14T07:53:24;11.53;;;2.80;;
30127;SDS011;16942;53.196;6.592;2024-02-14T07:55:50;10.47;;;2.73;;
30127;SDS011;16942;53.196;6.592;2024-02-14T07:58:18;12.03;;;3.17;;
30127;SDS011;16942;53.196;6.592;2024-02-14T08:00:44;12.83;;;3.30;;
30127;SDS011;16942;53.196;6.592;2024-02-14T08:03:09;15.87;;;3.83;;
30127;SDS011;16942;53.196;6.592;2024-02-14T08:05:35;13.47;;;2.70;;
30127;SDS011;16942;53.196;6.592;2024-02-14T08:08:01;13.60;;;2.93;;
30127;SDS011;16942;53.196;6.592;2024-02-14T08:10:28;11.97;;;2.70;;
30127;SDS011;16942;53.196;6.592;2024-02-14T08:12:54;15.67;;;3.17;;
30127;SDS011;16942;53.196;6.592;2024-02-14T08:15:20;14.10;;;2.80;;
30127;SDS011;16942;53.196;6.592;2024-02-14T08:17:46;12.17;;;3.40;;
30127;SDS011;16942;53.196;6.592;2024-02-14T08:20:12;13.03;;;3.00;;
30127;SDS011;16942;53.196;6.592;2024-02-14T08:22:38;10.47;;;2.63;;
30127;SDS011;16942;53.196;6.592;2024-02-14T08:25:04;10.93;;;3.00;;
30127;SDS011;16942;53.196;6.592;2024-02-14T08:27:30;13.10;;;3.10;;
30127;SDS011;16942;53.196;6.592;2024-02-14T08:29:56;14.13;;;2.70;;
30127;SDS011;16942;53.196;6.592;2024-02-14T08:32:22;10.57;;;2.63;;
30127;SDS011;16942;53.196;6.592;2024-02-14T08:34:48;9.93;;;3.03;;
30127;SDS011;16942;53.196;6.592;2024-02-14T08:37:17;14.10;;;3.43;;
30127;SDS011;16942;53.196;6.592;2024-02-14T08:39:43;14.90;;;3.33;;
30127;SDS011;16942;53.196;6.592;2024-02-14T08:42:10;13.90;;;3.07;;
30127;SDS011;16942;53.196;6.592;2024-02-14T08:44:36;12.83;;;2.67;;
30127;SDS011;16942;53.196;6.592;2024-02-14T08:47:03;11.93;;;3.53;;
30127;SDS011;16942;53.196;6.592;2024-02-14T08:49:29;12.80;;;3.50;;
30127;SDS011;16942;53.196;6.592;2024-02-14T08:51:55;11.93;;;3.10;;
30127;SDS011;16942;53.196;6.592;2024-02-14T08:54:21;9.53;;;2.77;;
30127;SDS011;16942;53.196;6.592;2024-02-14T08:56:48;8.33;;;2.97;;
30127;SDS011;16942;53.196;6.592;2024-02-14T08:59:14;8.20;;;2.93;;
30127;SDS011;16942;53.196;6.592;2024-02-14T09:01:40;7.30;;;2.80;;
30127;SDS011;16942;53.196;6.592;2024-02-14T09:04:06;8.53;;;2.73;;
30127;SDS011;16942;53.196;6.592;2024-02-14T09:06:32;7.13;;;2.53;;
30127;SDS011;16942;53.196;6.592;2024-02-14T09:08:58;7.50;;;3.00;;
30127;SDS011;16942;53.196;6.592;2024-02-14T09:11:24;8.77;;;3.00;;
30127;SDS011;16942;53.196;6.592;2024-02-14T09:13:51;9.10;;;3.20;;
30127;SDS011;16942;53.196;6.592;2024-02-14T09:16:20;6.30;;;3.30;;
30127;SDS011;16942;53.196;6.592;2024-02-14T09:18:48;6.90;;;3.50;;
30127;SDS011;16942;53.196;6.592;2024-02-14T09:21:14;8.17;;;3.30;;
30127;SDS011;16942;53.196;6.592;2024-02-14T09:23:46;8.67;;;3.40;;
30127;SDS011;16942;53.196;6.592;2024-02-14T09:26:12;9.93;;;3.10;;
30127;SDS011;16942;53.196;6.592;2024-02-14T09:28:41;7.10;;;3.50;;
30127;SDS011;16942;53.196;6.592;2024-02-14T09:31:07;11.67;;;3.93;;
30127;SDS011;16942;53.196;6.592;2024-02-14T09:33:36;7.20;;;3.90;;
30127;SDS011;16942;53.196;6.592;2024-02-14T09:36:02;7.07;;;3.60;;
30127;SDS011;16942;53.196;6.592;2024-02-14T09:38:29;10.40;;;4.10;;
30127;SDS011;16942;53.196;6.592;2024-02-14T09:40:57;12.60;;;4.20;;
30127;SDS011;16942;53.196;6.592;2024-02-14T09:43:36;9.37;;;3.87;;
30127;SDS011;16942;53.196;6.592;2024-02-14T09:46:02;8.80;;;3.30;;
30127;SDS011;16942;53.196;6.592;2024-02-14T09:48:29;9.13;;;3.33;;
30127;SDS011;16942;53.196;6.592;2024-02-14T09:50:56;9.10;;;3.50;;
30127;SDS011;16942;53.196;6.592;2024-02-14T09:53:22;10.20;;;3.80;;
30127;SDS011;16942;53.196;6.592;2024-02-14T09:55:49;5.57;;;2.93;;
30127;SDS011;16942;53.196;6.592;2024-02-14T09:58:17;6.03;;;3.07;;
30127;SDS011;16942;53.196;6.592;2024-02-14T10:00:43;8.10;;;3.20;;
30127;SDS011;16942;53.196;6.592;2024-02-14T10:03:09;9.20;;;3.10;;
30127;SDS011;16942;53.196;6.592;2024-02-14T10:05:35;8.07;;;3.30;;
30127;SDS011;16942;53.196;6.592;2024-02-14T10:08:02;4.70;;;2.70;;
30127;SDS011;16942;53.196;6.592;2024-02-14T10:10:29;6.70;;;2.60;;
30127;SDS011;16942;53.196;6.592;2024-02-14T10:12:55;6.90;;;2.87;;
30127;SDS011;16942;53.196;6.592;2024-02-14T10:15:21;6.47;;;2.77;;
30127;SDS011;16942;53.196;6.592;2024-02-14T10:17:47;6.67;;;2.23;;
30127;SDS011;16942;53.196;6.592;2024-02-14T10:20:16;3.77;;;2.57;;
30127;SDS011;16942;53.196;6.592;2024-02-14T10:22:42;7.33;;;2.43;;
30127;SDS011;16942;53.196;6.592;2024-02-14T10:25:09;4.50;;;2.17;;
30127;SDS011;16942;53.196;6.592;2024-02-14T10:27:39;6.17;;;2.20;;
30127;SDS011;16942;53.196;6.592;2024-02-14T10:30:06;4.60;;;2.30;;
30127;SDS011;16942;53.196;6.592;2024-02-14T10:32:37;3.40;;;2.00;;
30127;SDS011;16942;53.196;6.592;2024-02-14T10:35:04;5.60;;;2.50;;
30127;SDS011;16942;53.196;6.592;2024-02-14T10:37:34;4.90;;;2.63;;
30127;SDS011;16942;53.196;6.592;2024-02-14T10:40:02;8.03;;;2.87;;
30127;SDS011;16942;53.196;6.592;2024-02-14T10:42:29;5.50;;;2.80;;
30127;SDS011;16942;53.196;6.592;2024-02-14T10:44:56;3.63;;;2.70;;
30127;SDS011;16942;53.196;6.592;2024-02-14T10:47:24;5.23;;;2.20;;
30127;SDS011;16942;53.196;6.592;2024-02-14T10:49:50;2.70;;;2.30;;
30127;SDS011;16942;53.196;6.592;2024-02-14T10:52:17;4.63;;;2.20;;
30127;SDS011;16942;53.196;6.592;2024-02-14T10:54:45;2.63;;;1.67;;
30127;SDS011;16942;53.196;6.592;2024-02-14T10:57:13;2.57;;;1.40;;
30127;SDS011;16942;53.196;6.592;2024-02-14T10:59:42;1.77;;;1.63;;
30127;SDS011;16942;53.196;6.592;2024-02-14T11:02:09;2.10;;;1.30;;
30127;SDS011;16942;53.196;6.592;2024-02-14T11:04:36;1.77;;;1.10;;
30127;SDS011;16942;53.196;6.592;2024-02-14T11:07:02;1.17;;;1.00;;
30127;SDS011;16942;53.196;6.592;2024-02-14T11:09:31;1.40;;;0.90;;
30127;SDS011;16942;53.196;6.592;2024-02-14T11:12:01;1.67;;;0.87;;
30127;SDS011;16942;53.196;6.592;2024-02-14T11:14:31;1.53;;;1.10;;
30127;SDS011;16942;53.196;6.592;2024-02-14T11:16:59;1.17;;;1.00;;
30127;SDS011;16942;53.196;6.592;2024-02-14T11:19:31;1.67;;;1.30;;
30127;SDS011;16942;53.196;6.592;2024-02-14T11:21:58;2.97;;;1.57;;
30127;SDS011;16942;53.196;6.592;2024-02-14T11:24:27;4.23;;;2.00;;
30127;SDS011;16942;53.196;6.592;2024-02-14T11:26:55;2.33;;;1.70;;
30127;SDS011;16942;53.196;6.592;2024-02-14T11:29:28;2.27;;;1.80;;
30127;SDS011;16942;53.196;6.592;2024-02-14T11:32:00;2.30;;;1.90;;
30127;SDS011;16942;53.196;6.592;2024-02-14T11:34:31;3.70;;;2.20;;
30127;SDS011;16942;53.196;6.592;2024-02-14T11:36:58;2.57;;;2.00;;
30127;SDS011;16942;53.196;6.592;2024-02-14T11:39:25;2.30;;;2.10;;
30127;SDS011;16942;53.196;6.592;2024-02-14T11:41:51;2.17;;;1.97;;
30127;SDS011;16942;53.196;6.592;2024-02-14T11:44:18;2.03;;;1.70;;
30127;SDS011;16942;53.196;6.592;2024-02-14T11:46:47;3.00;;;1.97;;
30127;SDS011;16942;53.196;6.592;2024-02-14T11:49:14;1.90;;;1.60;;
30127;SDS011;16942;53.196;6.592;2024-02-14T11:51:42;2.30;;;2.03;;
30127;SDS011;16942;53.196;6.592;2024-02-14T11:54:08;2.30;;;1.40;;
30127;SDS011;16942;53.196;6.592;2024-02-14T11:56:35;1.57;;;1.40;;
30127;SDS011;16942;53.196;6.592;2024-02-14T11:59:05;1.30;;;1.07;;
30127;SDS011;16942;53.196;6.592;2024-02-14T12:01:32;1.03;;;0.93;;
30127;SDS011;16942;53.196;6.592;2024-02-14T12:03:59;1.20;;;1.10;;
30127;SDS011;16942;53.196;6.592;2024-02-14T12:06:29;1.03;;;0.93;;
30127;SDS011;16942;53.196;6.592;2024-02-14T12:08:57;1.00;;;0.90;;
30127;SDS011;16942;53.196;6.592;2024-02-14T12:11:26;1.47;;;0.80;;
30127;SDS011;16942;53.196;6.592;2024-02-14T12:13:54;2.07;;;0.90;;
30127;SDS011;16942;53.196;6.592;2024-02-14T12:16:20;0.77;;;0.77;;
30127;SDS011;16942;53.196;6.592;2024-02-14T12:18:46;1.27;;;1.17;;
30127;SDS011;16942;53.196;6.592;2024-02-14T12:21:13;0.93;;;0.90;;
30127;SDS011;16942;53.196;6.592;2024-02-14T12:23:39;0.90;;;0.90;;
30127;SDS011;16942;53.196;6.592;2024-02-14T12:26:05;1.83;;;1.00;;
30127;SDS011;16942;53.196;6.592;2024-02-14T12:28:31;1.13;;;1.03;;
30127;SDS011;16942;53.196;6.592;2024-02-14T12:30:57;1.10;;;1.00;;
30127;SDS011;16942;53.196;6.592;2024-02-14T12:33:26;1.07;;;1.07;;
30127;SDS011;16942;53.196;6.592;2024-02-14T12:35:54;1.03;;;1.00;;
30127;SDS011;16942;53.196;6.592;2024-02-14T12:38:21;1.50;;;1.40;;
30127;SDS011;16942;53.196;6.592;2024-02-14T12:40:50;1.60;;;1.50;;
30127;SDS011;16942;53.196;6.592;2024-02-14T12:43:19;2.47;;;1.60;;
30127;SDS011;16942;53.196;6.592;2024-02-14T12:45:45;2.80;;;1.83;;
30127;SDS011;16942;53.196;6.592;2024-02-14T12:48:12;1.70;;;1.60;;
30127;SDS011;16942;53.196;6.592;2024-02-14T12:50:40;1.90;;;1.80;;
30127;SDS011;16942;53.196;6.592;2024-02-14T12:53:13;1.83;;;1.70;;
30127;SDS011;16942;53.196;6.592;2024-02-14T12:55:39;3.50;;;2.07;;
30127;SDS011;16942;53.196;6.592;2024-02-14T12:58:05;2.10;;;1.90;;
30127;SDS011;16942;53.196;6.592;2024-02-14T13:00:31;2.90;;;1.90;;
30127;SDS011;16942;53.196;6.592;2024-02-14T13:02:57;1.80;;;1.70;;
30127;SDS011;16942;53.196;6.592;2024-02-14T13:05:24;1.83;;;1.73;;
30127;SDS011;16942;53.196;6.592;2024-02-14T13:07:50;3.00;;;1.80;;
30127;SDS011;16942;53.196;6.592;2024-02-14T13:10:16;1.80;;;1.70;;
30127;SDS011;16942;53.196;6.592;2024-02-14T13:12:43;1.60;;;1.50;;
30127;SDS011;16942;53.196;6.592;2024-02-14T13:15:10;1.40;;;1.30;;
30127;SDS011;16942;53.196;6.592;2024-02-14T13:17:36;1.63;;;1.43;;
30127;SDS011;16942;53.196;6.592;2024-02-14T13:20:03;1.43;;;1.33;;
30127;SDS011;16942;53.196;6.592;2024-02-14T13:22:29;1.80;;;1.70;;
30127;SDS011;16942;53.196;6.592;2024-02-14T13:24:55;2.30;;;1.90;;
30127;SDS011;16942;53.196;6.592;2024-02-14T13:27:21;2.10;;;1.90;;
30127;SDS011;16942;53.196;6.592;2024-02-14T13:29:48;1.50;;;1.40;;
30127;SDS011;16942;53.196;6.592;2024-02-14T13:32:14;2.33;;;2.00;;
30127;SDS011;16942;53.196;6.592;2024-02-14T13:34:40;1.93;;;1.80;;
30127;SDS011;16942;53.196;6.592;2024-02-14T13:37:08;1.90;;;1.80;;
30127;SDS011;16942;53.196;6.592;2024-02-14T13:39:35;2.67;;;2.47;;
30127;SDS011;16942;53.196;6.592;2024-02-14T13:42:01;2.90;;;2.00;;
30127;SDS011;16942;53.196;6.592;2024-02-14T13:44:27;2.23;;;2.03;;
30127;SDS011;16942;53.196;6.592;2024-02-14T13:46:54;2.17;;;2.00;;
30127;SDS011;16942;53.196;6.592;2024-02-14T13:49:20;2.33;;;2.13;;
30127;SDS011;16942;53.196;6.592;2024-02-14T13:51:50;2.13;;;1.97;;
30127;SDS011;16942;53.196;6.592;2024-02-14T13:54:20;2.27;;;2.07;;
30127;SDS011;16942;53.196;6.592;2024-02-14T13:56:49;2.47;;;2.27;;
30127;SDS011;16942;53.196;6.592;2024-02-14T13:59:15;2.33;;;2.13;;
30127;SDS011;16942;53.196;6.592;2024-02-14T14:01:41;2.77;;;2.57;;
30127;SDS011;16942;53.196;6.592;2024-02-14T14:04:07;3.07;;;2.77;;
30127;SDS011;16942;53.196;6.592;2024-02-14T14:06:33;2.70;;;2.50;;
30127;SDS011;16942;53.196;6.592;2024-02-14T14:09:00;3.03;;;2.77;;
30127;SDS011;16942;53.196;6.592;2024-02-14T14:11:28;3.00;;;2.70;;
30127;SDS011;16942;53.196;6.592;2024-02-14T14:13:54;2.87;;;2.67;;
30127;SDS011;16942;53.196;6.592;2024-02-14T14:16:20;2.87;;;2.67;;
30127;SDS011;16942;53.196;6.592;2024-02-14T14:18:48;3.30;;;3.00;;
30127;SDS011;16942;53.196;6.592;2024-02-14T14:21:14;3.47;;;3.17;;
30127;SDS011;16942;53.196;6.592;2024-02-14T14:23:40;3.23;;;3.03;;
30127;SDS011;16942;53.196;6.592;2024-02-14T14:26:06;3.83;;;3.53;;
30127;SDS011;16942;53.196;6.592;2024-02-14T14:28:33;3.57;;;3.37;;
30127;SDS011;16942;53.196;6.592;2024-02-14T14:30:59;3.90;;;3.60;;
30127;SDS011;16942;53.196;6.592;2024-02-14T14:33:26;4.00;;;3.70;;
30127;SDS011;16942;53.196;6.592;2024-02-14T14:35:52;4.30;;;3.90;;
30127;SDS011;16942;53.196;6.592;2024-02-14T14:38:19;3.90;;;3.60;;
30127;SDS011;16942;53.196;6.592;2024-02-14T14:40:46;4.00;;;3.70;;
30127;SDS011;16942;53.196;6.592;2024-02-14T14:43:12;3.83;;;3.53;;